createdAt,value
2019-05-26T00:01:11.229Z,69.64
2019-05-26T00:04:32.898Z,69.30
2019-05-26T00:07:01.592Z,65.93
2019-05-26T00:09:28.652Z,66.19
2019-05-26T00:11:55.538Z,68.28
2019-05-26T00:14:22.286Z,69.38
2019-05-26T00:16:49.210Z,69.19
2019-05-26T00:19:15.824Z,70.17
2019-05-26T00:21:42.577Z,71.24
2019-05-26T00:24:09.376Z,71.66
2019-05-26T00:26:36.008Z,71.19
2019-05-26T00:36:15.693Z,70.48
2019-05-26T00:38:42.724Z,70.52
2019-05-26T00:41:10.182Z,69.68
2019-05-26T00:43:37.014Z,68.11
2019-05-26T00:46:03.723Z,66.86
2019-05-26T00:48:30.520Z,66.11
2019-05-26T00:50:57.206Z,66.38
2019-05-26T00:53:23.950Z,66.23
2019-05-26T00:55:51.159Z,64.98
2019-05-26T00:58:35.592Z,64.84
2019-05-26T01:01:02.627Z,64.93
2019-05-26T01:03:29.192Z,64.90
2019-05-26T01:05:55.883Z,65.06
2019-05-26T01:08:22.367Z,65.18
2019-05-26T01:10:49.266Z,65.17
2019-05-26T01:13:16.055Z,65.30
2019-05-26T01:15:42.835Z,65.46
2019-05-26T01:18:09.477Z,65.69
2019-05-26T01:20:36.019Z,65.92
2019-05-26T01:23:03.418Z,66.05
2019-05-26T01:25:30.717Z,65.99
2019-05-26T01:27:57.709Z,66.10
2019-05-26T01:30:37.768Z,66.11
2019-05-26T01:51:44.787Z,69.25
2019-05-26T02:11:28.988Z,69.42
2019-05-26T02:16:44.427Z,70.26
2019-05-26T02:19:11.741Z,70.27
2019-05-26T02:28:51.419Z,71.51
2019-05-26T02:42:10.687Z,72.14
2019-05-26T02:44:37.345Z,71.82
2019-05-26T02:47:04.433Z,72.46
2019-05-26T02:53:02.185Z,72.93
2019-05-26T02:59:00.506Z,74.22
2019-05-26T03:01:28.285Z,75.33
2019-05-26T03:25:59.275Z,73.84
2019-05-26T03:28:26.490Z,73.34
2019-05-26T03:30:53.868Z,73.00
2019-05-26T03:33:21.114Z,73.60
2019-05-26T03:35:47.957Z,74.44
2019-05-26T03:38:14.602Z,74.51
2019-05-26T03:40:41.461Z,74.80
2019-05-26T03:43:08.129Z,74.90
2019-05-26T03:45:45.989Z,75.12
2019-05-26T03:48:12.664Z,74.27
2019-05-26T03:50:39.370Z,73.83
2019-05-26T03:53:24.921Z,73.77
2019-05-26T03:55:52.059Z,73.23
2019-05-26T04:32:06.033Z,73.45
2019-05-26T04:34:33.262Z,73.26
2019-05-26T04:37:01.113Z,73.27
2019-05-26T04:39:28.328Z,72.40
2019-05-26T04:41:55.304Z,72.83
2019-05-26T04:44:22.491Z,72.07
2019-05-26T04:46:49.595Z,71.76
2019-05-26T04:49:16.886Z,72.50
2019-05-26T04:51:46.924Z,72.28
2019-05-26T04:54:14.095Z,72.57
2019-05-26T04:56:41.076Z,71.92
2019-05-26T04:59:09.111Z,72.20
2019-05-26T05:01:36.335Z,71.76
2019-05-26T05:11:14.814Z,71.10
2019-05-26T05:13:42.045Z,70.70
2019-05-26T05:16:09.102Z,70.85
2019-05-26T05:22:30.444Z,69.76
2019-05-26T05:24:57.185Z,69.90
2019-05-26T05:27:24.188Z,69.55
2019-05-26T05:29:50.673Z,69.33
2019-05-26T05:32:17.340Z,70.17
2019-05-26T05:34:43.935Z,69.81
2019-05-26T05:37:10.551Z,70.16
2019-05-26T05:39:37.134Z,69.72
2019-05-26T05:42:03.820Z,70.20
2019-05-26T05:47:16.055Z,69.89
2019-05-26T05:49:43.126Z,69.49
2019-05-26T05:52:10.413Z,69.75
2019-05-26T05:54:37.315Z,69.05
2019-05-26T05:57:03.968Z,68.86
2019-05-26T05:59:30.456Z,68.97
2019-05-26T06:01:56.990Z,69.01
2019-05-26T06:04:23.554Z,68.57
2019-05-26T06:06:50.290Z,68.22
2019-05-26T06:09:17.161Z,67.81
2019-05-26T06:11:43.824Z,67.66
2019-05-26T06:14:11.393Z,66.23
2019-05-26T06:24:04.908Z,66.73
2019-05-26T06:31:02.261Z,66.63
2019-05-26T06:37:49.453Z,65.62
2019-05-26T06:44:29.971Z,64.57
2019-05-26T06:47:41.249Z,64.92
2019-05-26T06:50:08.575Z,62.90
2019-05-26T06:52:37.307Z,63.14
2019-05-26T06:55:31.309Z,62.58
2019-05-26T07:02:15.724Z,61.50
2019-05-26T07:08:45.342Z,62.75
2019-05-26T07:11:12.537Z,58.38
2019-05-26T07:13:39.136Z,57.95
2019-05-26T07:16:05.993Z,58.79
2019-05-26T07:18:33.011Z,57.62
2019-05-26T07:21:03.489Z,55.21
2019-05-26T07:23:41.373Z,55.21
2019-05-26T07:26:11.283Z,55.39
2019-05-26T07:28:37.884Z,53.57
2019-05-26T07:31:04.606Z,53.13
2019-05-26T07:33:31.138Z,50.42
2019-05-26T07:35:57.853Z,51.88
2019-05-26T07:38:24.357Z,50.53
2019-05-26T07:40:50.931Z,47.90
2019-05-26T07:43:17.612Z,47.47
2019-05-26T07:45:44.371Z,47.09
2019-05-26T07:48:11.079Z,46.85
2019-05-26T07:50:37.769Z,46.14
2019-05-26T07:53:04.345Z,45.01
2019-05-26T07:55:33.187Z,44.94
2019-05-26T07:57:59.880Z,46.63
2019-05-26T08:00:26.665Z,44.69
2019-05-26T08:02:53.340Z,44.71
2019-05-26T08:05:19.938Z,43.08
2019-05-26T08:07:46.526Z,44.63
2019-05-26T08:10:15.934Z,44.85
2019-05-26T08:12:42.562Z,42.52
2019-05-26T08:15:09.602Z,41.24
2019-05-26T08:17:36.444Z,41.70
2019-05-26T08:20:10.108Z,41.08
2019-05-26T08:22:36.927Z,42.72
2019-05-26T08:25:06.293Z,41.68
2019-05-26T08:27:33.228Z,40.21
2019-05-26T08:29:59.713Z,40.83
2019-05-26T08:32:26.414Z,41.54
2019-05-26T08:34:52.943Z,40.66
2019-05-26T08:37:19.567Z,41.56
2019-05-26T08:39:48.650Z,40.34
2019-05-26T08:42:27.042Z,39.98
2019-05-26T08:44:44.184Z,37.77
2019-05-26T08:47:10.675Z,40.86
2019-05-26T08:49:37.191Z,38.76
2019-05-26T08:52:04.084Z,40.11
2019-05-26T08:54:30.519Z,40.43
2019-05-26T08:56:57.652Z,42.11
2019-05-26T08:59:24.578Z,41.41
2019-05-26T09:01:51.047Z,40.35
2019-05-26T09:04:17.944Z,40.78
2019-05-26T09:06:44.490Z,38.01
2019-05-26T09:09:11.256Z,39.56
2019-05-26T09:11:37.951Z,38.47
2019-05-26T09:14:04.636Z,38.76
2019-05-26T09:16:32.321Z,40.22
2019-05-26T09:18:58.818Z,41.10
2019-05-26T09:21:25.435Z,40.34
2019-05-26T09:23:51.897Z,40.70
2019-05-26T09:26:18.576Z,38.60
2019-05-26T09:28:45.256Z,38.92
2019-05-26T09:31:11.761Z,39.96
2019-05-26T09:33:38.234Z,38.42
2019-05-26T09:36:05.007Z,40.29
2019-05-26T09:38:31.961Z,39.12
2019-05-26T09:40:58.460Z,40.21
2019-05-26T09:43:25.019Z,38.54
2019-05-26T09:45:51.510Z,39.23
2019-05-26T09:48:17.993Z,40.39
2019-05-26T09:50:44.764Z,38.88
2019-05-26T09:53:11.270Z,38.27
2019-05-26T09:55:37.814Z,37.76
2019-05-26T09:58:05.837Z,37.27
2019-05-26T10:00:32.700Z,36.56
2019-05-26T10:02:59.306Z,37.12
2019-05-26T10:05:25.871Z,37.94
2019-05-26T10:07:52.665Z,40.63
2019-05-26T10:10:19.405Z,37.70
2019-05-26T10:12:46.234Z,39.14
2019-05-26T10:15:13.616Z,38.76
2019-05-26T10:17:40.859Z,36.96
2019-05-26T10:20:08.511Z,39.07
2019-05-26T10:22:35.441Z,39.10
2019-05-26T10:25:04.485Z,38.57
2019-05-26T10:27:31.100Z,39.30
2019-05-26T10:29:57.652Z,38.99
2019-05-26T10:32:24.245Z,39.77
2019-05-26T10:34:50.891Z,38.19
2019-05-26T10:37:17.541Z,37.97
2019-05-26T10:39:45.231Z,37.57
2019-05-26T10:42:11.972Z,38.37
2019-05-26T10:44:38.546Z,36.84
2019-05-26T10:47:05.125Z,36.17
2019-05-26T10:49:31.812Z,36.41
2019-05-26T10:51:58.439Z,36.46
2019-05-26T10:54:25.264Z,37.27
2019-05-26T10:56:51.853Z,36.64
2019-05-26T10:59:18.470Z,35.99
2019-05-26T11:01:44.960Z,37.08
2019-05-26T11:04:11.576Z,34.83
2019-05-26T11:06:37.990Z,38.52
2019-05-26T11:09:06.628Z,35.04
2019-05-26T11:11:33.670Z,35.67
2019-05-26T11:14:03.148Z,36.05
2019-05-26T11:16:28.964Z,34.19
2019-05-26T11:18:55.435Z,34.69
2019-05-26T11:21:22.161Z,36.45
2019-05-26T11:23:52.396Z,35.99
2019-05-26T11:26:19.054Z,34.88
2019-05-26T11:28:45.587Z,34.53
2019-05-26T11:31:12.315Z,34.06
2019-05-26T11:33:38.991Z,33.95
2019-05-26T11:36:05.657Z,32.90
2019-05-26T11:38:33.725Z,32.36
2019-05-26T11:41:00.551Z,32.76
2019-05-26T11:43:27.119Z,31.14
2019-05-26T11:45:53.739Z,31.23
2019-05-26T11:48:20.341Z,31.52
2019-05-26T11:50:47.287Z,31.55
2019-05-26T11:53:13.791Z,31.48
2019-05-26T11:55:42.209Z,33.88
2019-05-26T11:58:08.901Z,32.38
2019-05-26T12:00:35.551Z,33.22
2019-05-26T12:03:02.414Z,33.36
2019-05-26T12:05:29.124Z,32.54
2019-05-26T12:07:55.675Z,33.87
2019-05-26T12:10:22.193Z,33.82
2019-05-26T12:12:48.835Z,31.28
2019-05-26T12:15:16.053Z,31.84
2019-05-26T12:17:42.747Z,31.08
2019-05-26T12:20:10.075Z,30.77
2019-05-26T12:22:36.713Z,32.77
2019-05-26T12:25:06.341Z,30.05
2019-05-26T12:27:32.932Z,30.50
2019-05-26T12:29:59.646Z,29.63
2019-05-26T12:32:26.560Z,29.32
2019-05-26T12:34:53.202Z,31.78
2019-05-26T12:37:19.800Z,31.12
2019-05-26T12:39:46.321Z,29.30
2019-05-26T12:42:12.919Z,30.77
2019-05-26T12:44:48.944Z,29.68
2019-05-26T12:47:08.022Z,29.87
2019-05-26T12:49:34.646Z,29.24
2019-05-26T12:52:01.399Z,31.58
2019-05-26T12:54:27.898Z,29.28
2019-05-26T12:56:54.596Z,28.93
2019-05-26T12:59:21.262Z,28.87
2019-05-26T13:01:48.011Z,27.79
2019-05-26T13:04:14.615Z,28.20
2019-05-26T13:06:41.350Z,28.66
2019-05-26T13:09:10.336Z,27.90
2019-05-26T13:11:36.863Z,27.48
2019-05-26T13:14:03.836Z,28.31
2019-05-26T13:16:30.370Z,28.84
2019-05-26T13:18:56.900Z,28.94
2019-05-26T13:21:23.438Z,27.42
2019-05-26T13:23:50.164Z,27.37
2019-05-26T13:26:16.601Z,27.27
2019-05-26T13:28:43.509Z,27.66
2019-05-26T13:31:10.340Z,29.14
2019-05-26T13:33:36.946Z,27.90
2019-05-26T13:36:03.542Z,27.57
2019-05-26T13:38:30.196Z,27.45
2019-05-26T13:40:56.857Z,28.13
2019-05-26T13:43:23.392Z,28.94
2019-05-26T13:45:51.038Z,28.23
2019-05-26T13:48:17.837Z,27.95
2019-05-26T13:50:44.434Z,29.30
2019-05-26T13:53:10.977Z,30.26
2019-05-26T13:55:37.732Z,28.97
2019-05-26T13:58:04.447Z,27.65
2019-05-26T14:00:31.034Z,27.96
2019-05-26T14:02:57.658Z,28.04
2019-05-26T14:05:24.236Z,28.70
2019-05-26T14:07:59.607Z,28.70
2019-05-26T14:10:34.744Z,30.72
2019-05-26T14:13:01.768Z,30.43
2019-05-26T14:15:37.197Z,30.01
2019-05-26T14:17:57.485Z,29.58
2019-05-26T14:20:38.918Z,29.64
2019-05-26T14:23:06.953Z,26.84
2019-05-26T14:25:33.959Z,27.64
2019-05-26T14:28:00.852Z,28.08
2019-05-26T14:30:27.600Z,28.29
2019-05-26T14:32:54.242Z,29.81
2019-05-26T14:35:20.666Z,29.82
2019-05-26T14:37:47.279Z,29.91
2019-05-26T14:40:14.020Z,30.34
2019-05-26T14:42:40.599Z,30.58
2019-05-26T14:45:07.798Z,30.94
2019-05-26T14:47:34.513Z,31.53
2019-05-26T14:50:01.363Z,31.23
2019-05-26T14:52:28.110Z,32.42
2019-05-26T14:54:54.599Z,31.80
2019-05-26T14:57:21.279Z,32.04
2019-05-26T14:59:47.981Z,32.26
2019-05-26T15:02:14.582Z,32.36
2019-05-26T15:04:41.227Z,32.64
2019-05-26T15:07:07.845Z,32.69
2019-05-26T15:09:35.047Z,33.18
2019-05-26T15:12:01.805Z,34.77
2019-05-26T15:14:28.312Z,34.77
2019-05-26T15:16:54.826Z,34.80
2019-05-26T15:19:21.433Z,34.40
2019-05-26T15:21:47.870Z,35.69
2019-05-26T15:24:14.626Z,34.69
2019-05-26T15:26:41.105Z,35.25
2019-05-26T15:29:07.626Z,35.64
2019-05-26T15:31:34.275Z,36.00
2019-05-26T15:34:00.867Z,35.77
2019-05-26T15:36:27.300Z,36.11
2019-05-26T15:38:53.895Z,36.11
2019-05-26T15:41:20.429Z,35.64
2019-05-26T15:43:47.500Z,36.72
2019-05-26T15:46:24.643Z,37.01
2019-05-26T15:48:42.602Z,36.00
2019-05-26T15:51:09.114Z,36.16
2019-05-26T15:53:35.632Z,36.74
2019-05-26T15:56:02.357Z,36.21
2019-05-26T15:58:29.161Z,36.34
2019-05-26T16:00:55.741Z,36.75
2019-05-26T16:03:22.234Z,37.60
2019-05-26T16:05:48.992Z,37.49
2019-05-26T16:08:15.723Z,37.43
2019-05-26T16:10:42.187Z,37.90
2019-05-26T16:13:08.763Z,37.64
2019-05-26T16:15:35.388Z,37.93
2019-05-26T16:18:01.831Z,38.95
2019-05-26T16:20:28.424Z,38.12
2019-05-26T16:22:55.252Z,37.87
2019-05-26T16:25:21.901Z,37.77
2019-05-26T16:27:48.578Z,37.90
2019-05-26T16:30:15.625Z,38.54
2019-05-26T16:32:42.844Z,38.66
2019-05-26T16:35:09.711Z,39.48
2019-05-26T16:37:36.269Z,39.25
2019-05-26T16:40:06.091Z,38.81
2019-05-26T16:42:33.124Z,38.65
2019-05-26T16:44:59.622Z,38.99
2019-05-26T16:47:27.809Z,39.45
2019-05-26T16:49:54.239Z,39.76
2019-05-26T16:52:21.077Z,40.58
2019-05-26T16:54:47.570Z,40.21
2019-05-26T16:57:14.166Z,39.77
2019-05-26T16:59:40.709Z,40.40
2019-05-26T17:02:07.424Z,40.13
2019-05-26T17:04:33.971Z,40.17
2019-05-26T17:07:00.408Z,41.40
2019-05-26T17:09:28.257Z,40.15
2019-05-26T17:11:54.819Z,40.24
2019-05-26T17:14:21.462Z,40.42
2019-05-26T17:16:48.125Z,40.85
2019-05-26T17:19:14.600Z,40.96
2019-05-26T17:21:41.157Z,41.12
2019-05-26T17:24:07.953Z,40.76
2019-05-26T17:26:34.635Z,41.13
2019-05-26T17:29:03.092Z,41.23
2019-05-26T17:31:29.527Z,41.94
2019-05-26T17:33:56.097Z,40.92
2019-05-26T17:36:22.748Z,41.64
2019-05-26T17:38:49.472Z,41.51
2019-05-26T17:41:16.121Z,41.27
2019-05-26T17:43:42.678Z,41.62
2019-05-26T17:46:09.307Z,41.92
2019-05-26T17:48:35.861Z,42.51
2019-05-26T17:51:02.531Z,42.91
2019-05-26T17:53:29.164Z,43.37
2019-05-26T17:55:55.877Z,43.66
2019-05-26T17:58:22.424Z,43.96
2019-05-26T18:00:49.458Z,44.17
2019-05-26T18:03:16.251Z,44.44
2019-05-26T18:05:43.026Z,44.77
2019-05-26T18:08:09.559Z,45.07
2019-05-26T18:10:36.416Z,45.38
2019-05-26T18:13:03.459Z,45.54
2019-05-26T18:15:30.047Z,45.89
2019-05-26T18:17:56.691Z,46.16
2019-05-26T18:20:23.420Z,46.16
2019-05-26T18:22:50.178Z,46.37
2019-05-26T18:25:16.844Z,46.55
2019-05-26T18:27:44.143Z,46.90
2019-05-26T18:30:11.553Z,47.37
2019-05-26T18:32:38.166Z,47.45
2019-05-26T18:35:06.723Z,47.64
2019-05-26T18:37:33.457Z,48.02
2019-05-26T18:40:00.434Z,48.32
2019-05-26T18:42:27.218Z,48.45
2019-05-26T18:44:53.895Z,48.89
2019-05-26T18:47:20.706Z,49.12
2019-05-26T18:49:47.331Z,49.41
2019-05-26T18:52:14.185Z,49.61
2019-05-26T18:54:40.748Z,50.07
2019-05-26T18:57:08.800Z,50.54
2019-05-26T18:59:35.694Z,50.98
2019-05-26T19:02:03.483Z,51.47
2019-05-26T19:04:30.181Z,51.49
2019-05-26T19:06:57.138Z,51.64
2019-05-26T19:09:23.858Z,51.83
2019-05-26T19:11:51.049Z,52.13
2019-05-26T19:14:17.814Z,52.25
2019-05-26T19:16:44.581Z,53.90
2019-05-26T19:19:11.034Z,52.75
2019-05-26T19:21:37.729Z,52.77
2019-05-26T19:24:04.375Z,52.64
2019-05-26T19:26:30.846Z,52.75
2019-05-26T19:28:57.520Z,52.82
2019-05-26T19:31:24.077Z,52.92
2019-05-26T19:33:50.839Z,53.22
2019-05-26T19:36:17.730Z,53.60
2019-05-26T19:38:44.721Z,54.01
2019-05-26T19:41:13.139Z,54.25
2019-05-26T19:43:39.845Z,54.43
2019-05-26T19:46:06.606Z,54.44
2019-05-26T19:48:37.049Z,54.46
2019-05-26T19:51:01.701Z,54.43
2019-05-26T19:53:28.250Z,54.23
2019-05-26T19:55:54.943Z,53.59
2019-05-26T19:58:21.835Z,53.40
2019-05-26T20:00:48.473Z,53.03
2019-05-26T20:03:15.398Z,52.80
2019-05-26T20:05:44.000Z,52.46
2019-05-26T20:08:10.708Z,52.23
2019-05-26T20:10:37.649Z,51.98
2019-05-26T20:13:04.531Z,51.92
2019-05-26T20:15:31.353Z,51.79
2019-05-26T20:17:58.628Z,52.11
2019-05-26T20:20:25.558Z,51.60
2019-05-26T20:22:52.271Z,51.61
2019-05-26T20:25:19.171Z,51.62
2019-05-26T20:27:46.060Z,52.02
2019-05-26T20:30:14.962Z,52.13
2019-05-26T20:32:41.810Z,52.10
2019-05-26T20:35:10.002Z,52.11
2019-05-26T20:37:38.561Z,52.35
2019-05-26T20:40:09.437Z,52.68
2019-05-26T20:42:36.018Z,52.33
2019-05-26T20:45:08.045Z,52.65
2019-05-26T20:47:34.590Z,52.53
2019-05-26T20:50:01.765Z,52.69
2019-05-26T20:52:29.903Z,52.55
2019-05-26T20:54:56.583Z,52.83
2019-05-26T20:57:23.211Z,53.05
2019-05-26T20:59:49.914Z,53.34
2019-05-26T21:02:16.644Z,53.59
2019-05-26T21:04:43.148Z,54.07
2019-05-26T21:07:09.856Z,54.44
2019-05-26T21:09:36.336Z,54.82
2019-05-26T21:12:03.360Z,54.72
2019-05-26T21:14:30.116Z,54.77
2019-05-26T21:16:56.628Z,54.97
2019-05-26T21:19:23.179Z,55.11
2019-05-26T21:21:49.991Z,55.20
2019-05-26T21:24:16.802Z,55.40
2019-05-26T21:26:43.361Z,55.51
2019-05-26T21:29:10.137Z,55.57
2019-05-26T21:31:36.839Z,55.54
2019-05-26T21:34:03.782Z,55.85
2019-05-26T21:36:30.397Z,55.77
2019-05-26T21:38:57.284Z,56.00
2019-05-26T21:42:17.345Z,56.29
2019-05-26T21:45:13.121Z,56.24
2019-05-26T21:47:39.947Z,56.38
2019-05-26T21:50:11.367Z,56.51
2019-05-26T22:13:39.383Z,57.35
2019-05-26T22:19:43.133Z,58.19
2019-05-26T22:22:10.013Z,58.82
2019-05-26T22:24:47.649Z,60.08
2019-05-26T22:27:14.401Z,59.89
2019-05-26T22:33:21.853Z,61.27
2019-05-26T22:35:48.881Z,63.33
2019-05-26T22:38:15.699Z,63.34
2019-05-26T22:40:42.343Z,64.48
2019-05-26T22:43:12.560Z,63.37
2019-05-26T22:57:20.426Z,62.29
2019-05-26T23:00:09.589Z,63.18
2019-05-26T23:02:36.685Z,63.29
2019-05-26T23:31:01.271Z,60.89
2019-05-26T23:36:58.759Z,61.38
2019-05-26T23:39:25.648Z,63.04
